Time;durP1;ratioP1;P1;durP2;ratioP2;P2;SDS_P1;SDS_P2;PMS_P1;PMS_P2;Temp;Humidity;BMP_temperature;BMP_pressure;BME280_temperature;BME280_humidity;BME280_pressure;Samples;Min_cycle;Max_cycle;Signal;HPM_P1;HPM_P2
2022/09/15 00:01:47;;;;;;;5.03;1.67;;;;;;;13.27;100.00;100024.75;5015357;28;20622;-46
2022/09/15 00:04:13;;;;;;;5.50;2.20;;;;;;;13.25;100.00;100022.19;5025356;28;20172;-47
2022/09/15 00:06:38;;;;;;;4.47;2.53;;;;;;;13.20;100.00;100025.13;5018761;28;20710;-45
2022/09/15 00:09:04;;;;;;;6.38;1.83;;;;;;;13.29;100.00;100012.09;5020349;28;20635;-46
2022/09/15 00:11:32;;;;;;;6.75;1.70;;;;;;;13.10;100.00;100018.63;5026380;28;20597;-45
2022/09/15 00:14:01;;;;;;;6.50;2.00;;;;;;;13.08;100.00;100022.34;5017362;28;20181;-44
2022/09/15 00:16:29;;;;;;;8.30;1.70;;;;;;;13.06;100.00;100016.22;5012453;28;20659;-46
2022/09/15 00:18:55;;;;;;;4.35;1.70;;;;;;;13.12;100.00;100018.53;5017773;28;20637;-47
2022/09/15 00:21:24;;;;;;;7.38;1.70;;;;;;;13.21;100.00;100017.94;5013864;28;20550;-44
2022/09/15 00:23:50;;;;;;;2.67;1.55;;;;;;;13.20;100.00;100019.75;5016039;28;20173;-46
2022/09/15 00:26:19;;;;;;;7.15;1.52;;;;;;;13.15;100.00;100016.50;5015288;28;20200;-47
2022/09/15 00:28:45;;;;;;;5.22;1.70;;;;;;;13.10;100.00;100018.63;5014057;28;20215;-44
2022/09/15 00:31:17;;;;;;;4.20;1.20;;;;;;;13.07;100.00;100015.22;5013052;28;20672;-45
2022/09/15 00:33:46;;;;;;;6.78;1.80;;;;;;;12.98;100.00;100008.59;5020625;28;20188;-46
2022/09/15 00:36:12;;;;;;;9.85;2.08;;;;;;;13.03;100.00;100017.28;5020655;28;20172;-47
2022/09/15 00:38:38;;;;;;;8.52;1.92;;;;;;;12.90;100.00;100019.84;5017843;28;20200;-45
2022/09/15 00:41:05;;;;;;;6.03;1.80;;;;;;;12.85;100.00;100013.00;5023369;28;20580;-47
2022/09/15 00:43:55;;;;;;;3.63;1.40;;;;;;;12.95;100.00;100016.88;5020714;28;20187;-47
2022/09/15 00:46:38;;;;;;;6.35;1.52;;;;;;;12.84;100.00;100017.50;5017161;28;20219;-45
2022/09/15 00:49:18;;;;;;;4.47;1.50;;;;;;;12.82;100.00;100024.81;5019772;28;20215;-47
2022/09/15 00:51:55;;;;;;;6.20;1.70;;;;;;;12.75;100.00;100024.31;5023648;28;20604;-48
2022/09/15 00:54:27;;;;;;;5.43;1.40;;;;;;;12.76;100.00;100015.28;5020646;28;20194;-45
2022/09/15 00:56:57;;;;;;;5.90;1.60;;;;;;;12.68;100.00;100017.59;5010008;28;20207;-48
2022/09/15 00:59:26;;;;;;;5.47;1.42;;;;;;;12.73;100.00;100012.78;5019471;28;20168;-49
2022/09/15 01:02:15;;;;;;;5.07;1.50;;;;;;;12.64;100.00;100004.41;5018355;28;20184;-48
2022/09/15 01:04:41;;;;;;;3.53;1.38;;;;;;;12.69;100.00;100026.50;5014159;28;20192;-45
2022/09/15 01:07:10;;;;;;;7.65;1.38;;;;;;;12.69;100.00;100027.38;5013486;28;20187;-48
2022/09/15 01:09:40;;;;;;;5.32;1.25;;;;;;;12.67;100.00;100023.03;5012735;28;20235;-46
2022/09/15 01:12:06;;;;;;;4.65;1.50;;;;;;;12.77;100.00;100027.78;5016283;28;20671;-45
2022/09/15 01:14:32;;;;;;;4.38;1.60;;;;;;;12.74;100.00;100038.69;5013673;28;20175;-44
2022/09/15 01:17:05;;;;;;;7.13;1.50;;;;;;;12.67;100.00;100026.59;5014075;28;20180;-44
2022/09/15 01:19:50;;;;;;;5.55;1.38;;;;;;;12.67;100.00;100026.59;5018466;28;20627;-45
2022/09/15 01:22:30;;;;;;;3.60;1.20;;;;;;;12.76;100.00;100028.72;5010283;28;20176;-47
2022/09/15 01:25:14;;;;;;;4.88;1.40;;;;;;;12.72;100.00;100037.91;5011372;28;20188;-47
2022/09/15 01:27:52;;;;;;;5.30;1.17;;;;;;;12.70;100.00;100026.41;5021569;28;20210;-47
2022/09/15 01:30:22;;;;;;;4.00;1.40;;;;;;;12.65;100.00;100025.81;5009960;28;20176;-49
2022/09/15 01:33:05;;;;;;;8.10;1.30;;;;;;;12.67;100.00;100017.66;5029026;28;20184;-49
2022/09/15 01:35:49;;;;;;;6.35;1.40;;;;;;;12.62;100.00;100039.44;5017445;28;20279;-48
2022/09/15 01:38:39;;;;;;;6.47;1.50;;;;;;;12.62;100.00;100034.06;5026395;28;20699;-47
2022/09/15 01:41:09;;;;;;;5.50;1.20;;;;;;;12.62;100.00;100036.75;5014798;28;20193;-45
2022/09/15 01:43:42;;;;;;;6.45;1.20;;;;;;;12.59;100.00;100034.22;5018434;28;20192;-47
2022/09/15 01:46:08;;;;;;;8.48;1.30;;;;;;;12.59;100.00;100015.44;5027382;28;20196;-47
2022/09/15 01:48:36;;;;;;;4.93;1.40;;;;;;;12.59;100.00;100004.69;5023196;28;20225;-46
2022/09/15 01:51:04;;;;;;;5.78;1.65;;;;;;;12.57;100.00;100009.28;5019806;28;20191;-47
2022/09/15 01:53:30;;;;;;;6.82;1.20;;;;;;;12.45;100.00;100004.66;5022617;28;20648;-47
2022/09/15 01:56:01;;;;;;;7.20;1.17;;;;;;;12.43;100.00;100017.31;5027558;28;20183;-44
2022/09/15 01:58:27;;;;;;;4.57;1.00;;;;;;;12.45;100.00;100010.88;5031297;28;20207;-48
2022/09/15 02:00:59;;;;;;;6.22;1.33;;;;;;;12.46;100.00;99999.19;5020991;28;20181;-47
2022/09/15 02:03:32;;;;;;;5.90;1.13;;;;;;;12.52;100.00;100004.19;5022497;28;20491;-46
2022/09/15 02:06:09;;;;;;;4.45;1.48;;;;;;;12.48;100.00;99993.72;5015315;28;20177;-46
2022/09/15 02:08:52;;;;;;;3.53;0.90;;;;;;;12.52;100.00;100000.63;5015358;28;20219;-45
2022/09/15 02:11:21;;;;;;;6.25;1.42;;;;;;;12.47;100.00;100014.34;5017430;28;20180;-49
2022/09/15 02:14:20;;;;;;;4.45;1.52;;;;;;;12.48;100.00;100018.75;5017702;28;20344;-48
2022/09/15 02:16:48;;;;;;;6.63;1.33;;;;;;;12.38;100.00;100017.59;5013649;28;20629;-45
2022/09/15 02:19:31;;;;;;;7.45;1.27;;;;;;;12.41;100.00;100020.06;5016683;28;20244;-46
2022/09/15 02:22:19;;;;;;;4.07;1.10;;;;;;;12.30;100.00;100012.63;5026374;28;20189;-46
2022/09/15 02:24:50;;;;;;;5.72;1.23;;;;;;;12.28;100.00;100014.56;5013043;28;20180;-45
2022/09/15 02:27:23;;;;;;;6.18;1.00;;;;;;;12.21;100.00;100012.31;5013341;28;20247;-46
2022/09/15 02:29:52;;;;;;;4.55;1.10;;;;;;;12.20;100.00;100008.78;5025130;28;20810;-47
2022/09/15 02:32:22;;;;;;;3.20;1.00;;;;;;;12.20;100.00;100014.16;5014200;28;20184;-47
2022/09/15 02:34:50;;;;;;;4.80;0.82;;;;;;;12.22;100.00;100016.72;5025875;28;20176;-46
2022/09/15 02:37:20;;;;;;;4.07;1.00;;;;;;;12.21;100.00;100007.81;5023760;28;20192;-49
2022/09/15 02:39:50;;;;;;;4.75;0.90;;;;;;;12.23;100.00;100000.53;5015192;28;20204;-48
2022/09/15 02:42:27;;;;;;;5.53;0.70;;;;;;;12.23;100.00;99995.16;5020605;28;20271;-48
2022/09/15 02:44:52;;;;;;;9.75;0.98;;;;;;;12.09;100.00;99998.66;5018282;28;20558;-47
2022/09/15 02:47:18;;;;;;;4.03;1.40;;;;;;;12.08;100.00;99998.75;5019138;28;20266;-48
2022/09/15 02:49:43;;;;;;;6.35;1.30;;;;;;;11.97;100.00;99994.00;5012585;28;20181;-47
2022/09/15 02:52:09;;;;;;;2.90;0.80;;;;;;;11.89;100.00;99981.00;5025294;28;20180;-47
2022/09/15 02:54:34;;;;;;;2.30;0.80;;;;;;;11.86;100.00;99991.88;5016779;28;20177;-46
2022/09/15 02:57:00;;;;;;;3.25;1.13;;;;;;;11.91;100.00;99997.88;5017420;28;20180;-47
2022/09/15 02:59:25;;;;;;;4.20;1.00;;;;;;;11.94;100.00;99995.03;5021135;28;20177;-49
2022/09/15 03:01:51;;;;;;;4.22;1.13;;;;;;;11.93;100.00;99995.13;5018725;28;20275;-47
2022/09/15 03:04:17;;;;;;;6.32;0.95;;;;;;;12.03;100.00;99988.28;5012049;28;20188;-49
2022/09/15 03:06:43;;;;;;;8.38;1.27;;;;;;;11.96;100.00;99994.97;5019680;28;20235;-45
2022/09/15 03:09:08;;;;;;;8.63;1.23;;;;;;;12.01;100.00;99998.22;5016259;28;20269;-44
2022/09/15 03:11:35;;;;;;;5.80;1.00;;;;;;;12.01;100.00;99995.53;5021472;28;20611;-45
2022/09/15 03:14:04;;;;;;;3.40;1.00;;;;;;;11.97;100.00;99990.44;5021072;28;20179;-46
2022/09/15 03:16:33;;;;;;;6.13;1.40;;;;;;;11.92;100.00;99986.19;5021501;28;20233;-48
2022/09/15 03:18:59;;;;;;;7.22;1.00;;;;;;;11.90;100.00;99997.97;5016454;28;20339;-50
2022/09/15 03:21:28;;;;;;;5.03;1.10;;;;;;;11.94;100.00;100000.41;5023057;28;20538;-48
2022/09/15 03:23:54;;;;;;;6.05;1.15;;;;;;;11.89;100.00;100002.47;5018457;28;20246;-51
2022/09/15 03:26:20;;;;;;;4.10;0.93;;;;;;;11.77;100.00;100004.97;5019645;28;20267;-50
2022/09/15 03:28:45;;;;;;;5.50;1.48;;;;;;;11.73;100.00;100006.94;5017515;28;20825;-50
2022/09/15 03:31:10;;;;;;;4.57;0.77;;;;;;;11.75;100.00;100008.59;5018024;28;20232;-48
2022/09/15 03:33:36;;;;;;;7.95;1.30;;;;;;;11.72;100.00;99999.88;5020254;28;20172;-50
2022/09/15 03:36:03;;;;;;;5.88;0.93;;;;;;;11.77;100.00;100005.81;5018222;28;20338;-51
2022/09/15 03:38:29;;;;;;;4.85;1.08;;;;;;;11.67;100.00;99999.25;5015499;28;20212;-51
2022/09/15 03:40:57;;;;;;;5.72;1.20;;;;;;;11.72;100.00;100005.25;5013993;28;20640;-49
2022/09/15 03:43:22;;;;;;;2.80;1.00;;;;;;;11.71;100.00;100007.03;5027455;28;20188;-50
2022/09/15 03:45:48;;;;;;;6.93;1.17;;;;;;;11.69;100.00;100016.97;5020998;28;20203;-50
2022/09/15 03:48:13;;;;;;;6.05;1.10;;;;;;;11.77;100.00;100002.28;5019878;28;20710;-50
2022/09/15 03:50:38;;;;;;;5.43;1.08;;;;;;;11.78;100.00;100002.19;5014745;28;20188;-50
2022/09/15 03:53:04;;;;;;;4.63;1.20;;;;;;;11.69;100.00;100002.69;5014736;28;20188;-49
2022/09/15 03:55:29;;;;;;;6.85;1.17;;;;;;;11.74;100.00;100008.66;5011612;28;20191;-49
2022/09/15 03:57:55;;;;;;;4.45;1.42;;;;;;;11.81;100.00;100010.06;5020290;28;20213;-49
2022/09/15 04:00:21;;;;;;;8.02;1.38;;;;;;;11.68;100.00;100004.53;5012191;28;20184;-48
2022/09/15 04:02:47;;;;;;;7.65;1.17;;;;;;;11.63;100.00;100000.34;5013179;28;20270;-51
2022/09/15 04:05:12;;;;;;;6.85;1.42;;;;;;;11.64;100.00;99994.91;5015513;28;20216;-48
2022/09/15 04:07:39;;;;;;;8.38;1.50;;;;;;;11.65;100.00;99993.09;5018097;28;20281;-49
2022/09/15 04:10:06;;;;;;;6.63;1.42;;;;;;;11.71;100.00;99998.97;5017169;28;20189;-49
2022/09/15 04:12:32;;;;;;;5.50;1.20;;;;;;;11.59;100.00;99990.75;5017266;28;20632;-48
2022/09/15 04:14:57;;;;;;;9.15;1.80;;;;;;;11.65;100.00;99990.41;5013103;28;20203;-49
2022/09/15 04:17:23;;;;;;;5.32;1.35;;;;;;;11.61;100.00;99986.16;5015613;28;20230;-49
2022/09/15 04:19:48;;;;;;;9.20;1.25;;;;;;;11.59;100.00;99990.75;5025732;28;20660;-51
2022/09/15 04:22:14;;;;;;;8.45;2.47;;;;;;;11.49;100.00;99982.34;5020605;28;20192;-49
2022/09/15 04:24:40;;;;;;;8.60;1.50;;;;;;;11.51;100.00;99999.25;5019987;28;20586;-49
2022/09/15 04:27:06;;;;;;;5.60;1.20;;;;;;;11.45;100.00;99989.69;5014153;28;20184;-50
2022/09/15 04:29:31;;;;;;;10.38;1.38;;;;;;;11.49;100.00;99985.91;5015049;28;20275;-50
2022/09/15 04:31:57;;;;;;;8.13;1.40;;;;;;;11.48;100.00;99997.59;5016401;28;20683;-50
2022/09/15 04:34:23;;;;;;;8.27;1.60;;;;;;;11.50;100.00;99995.69;5018539;28;20196;-49
2022/09/15 04:36:49;;;;;;;5.55;1.15;;;;;;;11.57;100.00;99998.00;5017461;28;20231;-49
2022/09/15 04:39:15;;;;;;;7.50;1.63;;;;;;;11.55;100.00;100009.72;5017151;28;20615;-50
2022/09/15 04:41:41;;;;;;;7.60;1.55;;;;;;;11.59;100.00;100020.25;5014242;28;20586;-50
2022/09/15 04:44:06;;;;;;;9.32;1.25;;;;;;;11.67;100.00;100004.59;5016436;28;20192;-49
2022/09/15 04:46:32;;;;;;;7.43;1.40;;;;;;;11.65;100.00;100009.19;5018588;28;20257;-48
2022/09/15 04:48:57;;;;;;;11.60;1.63;;;;;;;11.66;100.00;100003.75;5016705;28;20232;-51
2022/09/15 04:51:24;;;;;;;4.72;1.05;;;;;;;11.62;100.00;100009.38;5024205;28;20192;-52
2022/09/15 04:53:50;;;;;;;4.80;1.30;;;;;;;11.56;100.00;100005.19;5013727;28;20192;-50
2022/09/15 04:56:22;;;;;;;9.00;1.10;;;;;;;11.58;100.00;100005.97;5014460;28;20216;-50
2022/09/15 04:58:50;;;;;;;7.00;1.10;;;;;;;11.63;100.00;100003.94;5021178;28;20207;-50
2022/09/15 05:01:35;;;;;;;6.78;1.63;;;;;;;11.60;100.00;99998.72;5018083;28;20181;-51
2022/09/15 05:04:05;;;;;;;6.07;1.20;;;;;;;11.63;100.00;100003.03;5015909;28;20202;-48
2022/09/15 05:06:31;;;;;;;7.97;1.48;;;;;;;11.58;100.00;100002.44;5000950;28;20202;-49
2022/09/15 05:08:57;;;;;;;6.03;1.48;;;;;;;11.57;100.00;99990.84;5011815;28;20204;-50
2022/09/15 05:11:23;;;;;;;6.88;1.50;;;;;;;11.76;100.00;99993.34;5013115;28;20180;-50
2022/09/15 05:13:49;;;;;;;5.50;2.03;;;;;;;11.68;100.00;99995.63;5017745;28;20189;-49
2022/09/15 05:16:17;;;;;;;6.90;1.45;;;;;;;11.60;100.00;99997.84;5017400;28;20187;-50
2022/09/15 05:18:44;;;;;;;8.18;1.38;;;;;;;11.64;100.00;99992.22;5020998;28;20211;-51
2022/09/15 05:21:12;;;;;;;7.75;1.50;;;;;;;11.59;100.00;99998.78;5015840;28;20260;-51
2022/09/15 05:23:38;;;;;;;7.32;1.35;;;;;;;11.61;100.00;99991.53;5017308;28;20176;-52
2022/09/15 05:26:06;;;;;;;6.70;1.25;;;;;;;11.64;100.00;99996.75;5016671;28;20648;-49
2022/09/15 05:28:34;;;;;;;8.32;1.80;;;;;;;11.71;100.00;100003.50;5014191;28;20214;-48
2022/09/15 05:30:59;;;;;;;8.40;1.38;;;;;;;11.62;100.00;100004.88;5019819;28;20185;-49
2022/09/15 05:33:25;;;;;;;9.05;1.80;;;;;;;11.72;100.00;100002.56;5016946;28;20192;-50
2022/09/15 05:35:58;;;;;;;6.55;1.35;;;;;;;11.67;100.00;100001.91;5021294;28;20214;-49
2022/09/15 05:38:25;;;;;;;12.32;1.55;;;;;;;11.68;100.00;99998.31;5022126;28;20200;-50
2022/09/15 05:40:50;;;;;;;9.30;1.60;;;;;;;11.69;100.00;100006.25;5021161;28;20235;-49
2022/09/15 05:43:17;;;;;;;10.13;1.67;;;;;;;11.71;100.00;100007.03;5025299;28;20192;-49
2022/09/15 05:45:42;;;;;;;8.38;1.77;;;;;;;11.66;100.00;100014.47;5016416;28;20740;-49
2022/09/15 05:48:09;;;;;;;6.72;1.33;;;;;;;11.76;100.00;100014.81;5017857;28;20220;-50
2022/09/15 05:50:35;;;;;;;5.10;1.33;;;;;;;11.83;100.00;100023.38;5019753;28;20180;-49
2022/09/15 05:53:01;;;;;;;9.82;1.60;;;;;;;11.76;100.00;100020.19;5021620;28;20700;-50
2022/09/15 05:55:27;;;;;;;6.00;1.63;;;;;;;11.77;100.00;100029.97;5017006;28;20279;-50
2022/09/15 05:57:53;;;;;;;8.02;1.50;;;;;;;11.74;100.00;100022.97;5023967;28;20211;-47
2022/09/15 06:00:18;;;;;;;5.13;1.30;;;;;;;11.79;100.00;100028.09;5015981;28;20181;-51
2022/09/15 06:02:44;;;;;;;6.13;1.77;;;;;;;11.68;100.00;100019.78;5020762;28;20196;-52
2022/09/15 06:05:10;;;;;;;7.07;1.20;;;;;;;11.70;100.00;100021.41;5022667;28;20175;-49
2022/09/15 06:07:36;;;;;;;11.70;1.60;;;;;;;11.75;100.00;100026.53;5018101;28;20259;-49
2022/09/15 06:10:03;;;;;;;6.15;1.60;;;;;;;12.06;100.00;100027.50;5018324;28;20204;-48
2022/09/15 06:12:28;;;;;;;8.35;1.40;;;;;;;12.26;100.00;100023.66;5019461;28;20196;-49
2022/09/15 06:14:53;;;;;;;6.30;1.60;;;;;;;12.84;100.00;100019.34;5020961;28;20678;-50
2022/09/15 06:17:21;;;;;;;6.10;1.70;;;;;;;13.10;100.00;100017.75;5020483;28;20208;-49
2022/09/15 06:19:46;;;;;;;5.32;1.58;;;;;;;13.16;98.42;100020.94;5019056;28;20215;-50
2022/09/15 06:22:12;;;;;;;9.10;1.35;;;;;;;13.30;97.79;100028.16;5016568;28;20212;-48
2022/09/15 06:24:37;;;;;;;7.80;1.58;;;;;;;13.57;96.64;100039.00;5005796;28;20176;-50
2022/09/15 06:27:03;;;;;;;7.72;1.77;;;;;;;13.60;96.00;100030.75;5027323;28;20203;-50
2022/09/15 06:29:28;;;;;;;9.90;1.65;;;;;;;13.02;95.90;100028.09;5019758;28;20316;-49
2022/09/15 06:31:55;;;;;;;3.42;1.30;;;;;;;12.87;96.91;100028.06;5024404;28;20525;-50
2022/09/15 06:34:21;;;;;;;7.35;1.27;;;;;;;12.69;97.71;100030.06;5022303;28;20573;-51
2022/09/15 06:36:46;;;;;;;4.38;1.00;;;;;;;12.85;98.21;100024.59;5016029;28;20235;-49
2022/09/15 06:39:12;;;;;;;8.30;1.30;;;;;;;13.26;97.87;100018.50;5018042;28;20200;-50
2022/09/15 06:41:38;;;;;;;6.55;1.60;;;;;;;13.64;96.79;100031.41;5018989;28;20702;-47
2022/09/15 06:44:03;;;;;;;7.43;1.35;;;;;;;13.96;95.32;100026.63;5016170;28;20184;-49
2022/09/15 06:46:29;;;;;;;7.55;1.88;;;;;;;14.08;93.62;100018.72;5018653;28;20226;-49
2022/09/15 06:48:54;;;;;;;10.75;2.72;;;;;;;14.31;92.87;100015.38;5022805;28;20271;-51
2022/09/15 06:51:22;;;;;;;6.65;1.50;;;;;;;14.14;92.13;100016.47;5018592;28;20560;-50
2022/09/15 06:53:48;;;;;;;9.20;2.03;;;;;;;14.32;91.67;100011.72;5019155;28;20185;-48
2022/09/15 06:56:16;;;;;;;5.55;1.30;;;;;;;14.27;90.90;100005.75;5018195;28;20539;-48
2022/09/15 06:58:43;;;;;;;8.07;1.38;;;;;;;14.73;89.40;100021.53;5018936;28;20716;-48
2022/09/15 07:01:19;;;;;;;7.20;1.65;;;;;;;15.13;86.82;100009.81;5019743;28;20176;-50
2022/09/15 07:03:45;;;;;;;6.78;1.30;;;;;;;15.22;85.84;100014.59;5015027;28;20183;-51
2022/09/15 07:06:11;;;;;;;8.70;1.40;;;;;;;15.12;85.10;100019.75;5018109;28;20612;-50
2022/09/15 07:08:37;;;;;;;5.50;1.20;;;;;;;15.24;84.40;100018.91;5021480;28;20294;-50
2022/09/15 07:11:03;;;;;;;4.28;1.20;;;;;;;15.34;83.12;100029.91;5020880;28;20590;-50
2022/09/15 07:13:29;;;;;;;5.03;1.38;;;;;;;15.56;82.48;100022.97;5016454;28;20184;-50
2022/09/15 07:15:58;;;;;;;5.32;1.30;;;;;;;15.17;82.43;100022.97;5016663;28;20197;-49
2022/09/15 07:18:24;;;;;;;5.13;1.30;;;;;;;15.56;82.12;100022.97;5019014;28;20231;-51
2022/09/15 07:20:50;;;;;;;4.05;1.08;;;;;;;15.49;82.22;100022.53;5020065;28;20196;-51
2022/09/15 07:23:17;;;;;;;4.40;1.30;;;;;;;16.02;81.78;100027.75;5022747;28;20177;-47
2022/09/15 07:25:44;;;;;;;7.10;1.20;;;;;;;16.03;80.26;100015.97;5017259;28;20218;-47
2022/09/15 07:28:10;;;;;;;7.55;1.48;;;;;;;15.96;80.16;100022.78;5017264;28;20324;-49
2022/09/15 07:30:38;;;;;;;11.43;1.70;;;;;;;16.24;78.90;100019.75;5019606;28;20185;-50
2022/09/15 07:33:07;;;;;;;8.07;1.60;;;;;;;15.88;80.11;100020.66;5019564;28;20188;-49
2022/09/15 07:35:33;;;;;;;6.00;1.42;;;;;;;16.10;79.76;100027.19;5016462;28;20187;-49
2022/09/15 07:37:59;;;;;;;4.18;1.60;;;;;;;16.16;79.04;100037.53;5016598;28;20199;-50
2022/09/15 07:40:26;;;;;;;8.25;1.77;;;;;;;16.20;79.14;100022.81;5020378;28;20196;-49
2022/09/15 07:42:51;;;;;;;5.90;1.50;;;;;;;16.13;78.44;100033.22;5019461;28;20219;-47
2022/09/15 07:45:17;;;;;;;6.70;1.30;;;;;;;15.95;78.71;100032.75;5020072;28;20211;-50
2022/09/15 07:47:42;;;;;;;4.40;1.25;;;;;;;16.27;78.88;100024.09;5015966;28;20675;-49
2022/09/15 07:50:08;;;;;;;6.38;1.40;;;;;;;16.35;78.36;100032.47;5016166;28;20232;-49
2022/09/15 07:52:33;;;;;;;7.05;1.30;;;;;;;16.35;76.98;100012.69;5012841;28;20191;-48
2022/09/15 07:54:59;;;;;;;5.97;1.25;;;;;;;16.18;75.80;100020.25;5020717;28;20259;-49
2022/09/15 07:57:25;;;;;;;7.55;1.52;;;;;;;16.85;75.30;100019.66;5016375;28;20216;-50
2022/09/15 07:59:50;;;;;;;8.00;1.27;;;;;;;16.63;74.31;100016.88;5018125;28;20180;-47
2022/09/15 08:02:17;;;;;;;6.68;1.50;;;;;;;16.60;74.35;100019.81;5015455;28;20223;-47
2022/09/15 08:04:43;;;;;;;4.43;1.20;;;;;;;16.88;72.99;100011.34;5014644;28;20195;-50
2022/09/15 08:07:09;;;;;;;6.85;1.20;;;;;;;16.73;73.21;100025.16;5015868;28;20188;-48
2022/09/15 08:09:39;;;;;;;5.85;1.30;;;;;;;17.11;72.39;100030.31;5019023;28;20296;-50
2022/09/15 08:12:06;;;;;;;5.82;1.02;;;;;;;17.25;71.53;100031.94;5017877;28;20192;-47
2022/09/15 08:14:32;;;;;;;8.68;1.60;;;;;;;16.79;71.92;100030.97;5014286;28;20172;-48
2022/09/15 08:16:59;;;;;;;6.00;1.55;;;;;;;17.46;71.06;100027.53;5016206;28;20227;-50
2022/09/15 08:19:33;;;;;;;6.70;1.73;;;;;;;17.19;70.76;100027.88;5018338;28;20279;-49
2022/09/15 08:22:00;;;;;;;8.38;1.75;;;;;;;17.11;71.37;100041.13;5017826;28;20287;-48
2022/09/15 08:24:25;;;;;;;4.25;1.30;;;;;;;16.93;72.54;100037.19;5011240;28;20189;-47
2022/09/15 08:26:51;;;;;;;4.25;1.30;;;;;;;16.94;71.95;100039.75;5013903;28;20258;-48
2022/09/15 08:29:17;;;;;;;7.47;1.60;;;;;;;16.78;71.59;100044.59;5018109;28;20236;-46
2022/09/15 08:31:44;;;;;;;5.28;1.48;;;;;;;16.92;72.29;100040.84;5017545;28;20260;-49
2022/09/15 08:34:12;;;;;;;6.22;1.73;;;;;;;17.55;71.01;100041.31;5017855;28;20688;-50
2022/09/15 08:36:38;;;;;;;8.43;1.33;;;;;;;16.85;71.02;100049.44;5017655;28;20524;-49
2022/09/15 08:39:04;;;;;;;5.47;1.52;;;;;;;16.99;69.07;100056.50;5013256;28;20224;-47
2022/09/15 08:41:38;;;;;;;5.55;1.13;;;;;;;17.37;69.46;100057.19;5015250;28;20184;-47
2022/09/15 08:44:15;;;;;;;5.07;1.30;;;;;;;17.02;69.41;100049.97;5015125;28;20176;-47
2022/09/15 08:46:55;;;;;;;8.02;1.30;;;;;;;16.44;70.15;100053.44;5019113;28;20199;-48
2022/09/15 08:49:46;;;;;;;5.00;1.50;;;;;;;15.86;73.29;100060.44;5017049;28;20215;-48
2022/09/15 08:52:19;;;;;;;6.88;1.52;;;;;;;15.91;71.96;100057.41;5015741;28;20188;-50
2022/09/15 08:54:45;;;;;;;4.45;1.30;;;;;;;15.95;72.36;100067.84;5014696;28;20189;-48
2022/09/15 08:57:17;;;;;;;8.57;1.45;;;;;;;16.53;70.98;100051.00;5018352;28;20264;-47
2022/09/15 08:59:43;;;;;;;7.68;1.27;;;;;;;16.47;70.92;100053.19;5019400;28;20172;-47
2022/09/15 09:02:11;;;;;;;6.07;1.70;;;;;;;16.98;69.04;100052.06;5016597;28;20263;-48
2022/09/15 09:05:28;;;;;;;3.83;1.13;;;;;;;17.36;66.85;100052.75;5015402;28;20192;-47
2022/09/15 09:08:22;;;;;;;4.00;1.02;;;;;;;17.46;66.54;100051.03;5016905;28;20228;-48
2022/09/15 09:10:52;;;;;;;5.15;1.20;;;;;;;17.59;67.97;100057.19;5017991;28;20199;-49
2022/09/15 09:13:26;;;;;;;7.05;1.40;;;;;;;17.70;66.25;100057.19;5016330;28;20250;-48
2022/09/15 09:16:17;;;;;;;5.30;1.02;;;;;;;17.61;66.16;100054.38;5025233;28;20184;-47
2022/09/15 09:19:02;;;;;;;3.47;1.00;;;;;;;17.95;64.94;100057.97;5013045;28;20327;-50
2022/09/15 09:21:36;;;;;;;5.25;1.42;;;;;;;17.54;64.58;100059.41;5015930;28;20211;-47
2022/09/15 09:24:10;;;;;;;4.05;1.50;;;;;;;18.05;64.96;100058.91;5019053;28;20626;-49
2022/09/15 09:26:36;;;;;;;5.32;1.20;;;;;;;17.87;65.25;100066.72;5014964;28;20254;-48
2022/09/15 09:29:12;;;;;;;5.45;1.10;;;;;;;17.28;63.43;100056.91;5014854;28;20212;-47
2022/09/15 09:31:40;;;;;;;4.30;1.00;;;;;;;17.45;64.27;100065.56;5013220;28;20199;-48
2022/09/15 09:34:30;;;;;;;5.50;1.23;;;;;;;17.30;64.15;100059.53;5010342;28;20184;-50
2022/09/15 09:36:57;;;;;;;5.70;1.40;;;;;;;17.95;63.38;100063.41;5015113;28;20208;-47
2022/09/15 09:39:24;;;;;;;7.07;1.20;;;;;;;18.40;63.63;100060.56;5013459;28;20177;-48
2022/09/15 09:41:50;;;;;;;5.60;1.60;;;;;;;18.13;62.80;100052.88;5012682;28;20196;-50
2022/09/15 09:44:17;;;;;;;4.05;1.42;;;;;;;18.10;62.28;100050.41;5014043;28;20514;-49
2022/09/15 09:46:43;;;;;;;6.32;1.50;;;;;;;17.82;62.53;100057.22;5015049;28;20196;-47
2022/09/15 09:49:28;;;;;;;9.07;1.50;;;;;;;17.76;62.76;100057.72;5019451;28;20211;-48
2022/09/15 09:51:58;;;;;;;4.90;1.45;;;;;;;17.89;62.60;100053.03;5013836;28;20180;-47
2022/09/15 09:54:28;;;;;;;5.97;0.90;;;;;;;17.80;62.05;100057.34;5012327;28;20193;-48
2022/09/15 09:56:56;;;;;;;7.65;1.60;;;;;;;17.98;62.10;100049.56;5016703;28;20227;-46
2022/09/15 09:59:45;;;;;;;4.30;1.25;;;;;;;17.56;62.37;100060.16;5015663;28;20659;-48
2022/09/15 10:02:10;;;;;;;5.68;1.30;;;;;;;17.42;63.05;100068.50;5020962;28;20874;-48
2022/09/15 10:04:41;;;;;;;2.78;1.10;;;;;;;17.48;64.95;100057.19;5018137;28;20223;-48
2022/09/15 10:07:07;;;;;;;6.05;1.67;;;;;;;17.19;64.46;100062.22;5018136;28;20224;-48
2022/09/15 10:09:33;;;;;;;4.03;1.17;;;;;;;17.25;65.86;100054.47;5018211;28;20208;-48
2022/09/15 10:12:00;;;;;;;3.75;1.20;;;;;;;17.58;65.76;100058.19;5019897;28;20184;-50
2022/09/15 10:14:29;;;;;;;4.30;1.25;;;;;;;17.73;65.87;100052.50;5020872;28;20188;-48
2022/09/15 10:16:59;;;;;;;5.30;1.05;;;;;;;17.53;66.34;100049.56;5019987;28;20192;-49
2022/09/15 10:19:27;;;;;;;11.63;1.35;;;;;;;17.51;67.82;100054.22;5018581;28;20199;-48
2022/09/15 10:21:52;;;;;;;4.97;1.17;;;;;;;17.83;67.73;100048.97;5021848;28;20205;-47
2022/09/15 10:24:31;;;;;;;6.65;1.88;;;;;;;17.60;66.24;100056.22;5017690;28;20224;-49
2022/09/15 10:27:18;;;;;;;5.32;1.35;;;;;;;17.55;67.10;100053.00;5020671;28;20192;-47
2022/09/15 10:29:44;;;;;;;6.68;1.60;;;;;;;17.16;67.85;100046.19;5018751;28;20224;-48
2022/09/15 10:32:25;;;;;;;6.05;1.50;;;;;;;17.03;68.22;100039.06;5019810;28;20189;-48
2022/09/15 10:35:12;;;;;;;7.95;2.00;;;;;;;16.53;70.56;100040.19;5017284;28;20192;-48
2022/09/15 10:37:56;;;;;;;5.93;1.90;;;;;;;17.27;70.88;100040.78;5020022;28;20223;-47
2022/09/15 10:40:52;;;;;;;4.45;1.45;;;;;;;17.40;69.63;100044.25;5023046;28;20196;-49
2022/09/15 10:43:36;;;;;;;7.50;1.40;;;;;;;17.56;67.39;100035.78;5021559;28;20734;-47
2022/09/15 10:46:25;;;;;;;4.03;1.20;;;;;;;17.77;66.35;100051.28;5015540;28;20192;-49
2022/09/15 10:49:53;;;;;;;4.03;0.90;;;;;;;17.32;64.53;100060.25;5020109;28;20217;-48
2022/09/15 10:52:46;;;;;;;3.28;0.80;;;;;;;16.57;66.95;100055.19;4977769;28;20653;-49
2022/09/15 10:55:53;;;;;;;3.88;0.88;;;;;;;16.24;67.45;100059.44;4975781;28;20769;-48
2022/09/15 10:58:51;;;;;;;2.25;0.85;;;;;;;16.28;68.71;100066.34;5012937;28;20902;-47
2022/09/15 11:01:22;;;;;;;3.50;0.95;;;;;;;15.40;71.66;100069.94;5026020;28;20242;-48
2022/09/15 11:04:18;;;;;;;1.88;1.00;;;;;;;15.49;74.22;100079.22;5019294;28;20619;-47
2022/09/15 11:07:10;;;;;;;2.72;0.90;;;;;;;15.06;74.70;100071.44;5012944;28;20191;-46
2022/09/15 11:09:56;;;;;;;3.67;0.77;;;;;;;14.76;75.92;100086.06;5015551;28;20235;-48
2022/09/15 11:12:46;;;;;;;6.38;1.10;;;;;;;14.65;77.38;100085.94;5015855;28;20211;-47
2022/09/15 11:15:45;;;;;;;4.70;0.80;;;;;;;14.63;78.66;100104.03;5025095;28;20184;-47
2022/09/15 11:18:28;;;;;;;2.53;0.70;;;;;;;14.57;79.49;100101.75;5017250;28;20703;-46
2022/09/15 11:21:11;;;;;;;2.65;0.77;;;;;;;15.03;79.89;100090.53;5015945;28;20193;-47
2022/09/15 11:23:46;;;;;;;2.80;0.93;;;;;;;15.39;80.37;100091.66;5017245;28;20192;-48
2022/09/15 11:26:32;;;;;;;4.20;1.08;;;;;;;15.19;79.77;100102.00;5018914;28;20191;-47
2022/09/15 11:29:09;;;;;;;5.32;1.20;;;;;;;14.90;79.71;100098.59;5020917;28;20582;-49
2022/09/15 11:31:39;;;;;;;4.03;1.00;;;;;;;14.78;80.92;100094.03;5019615;28;20199;-49
2022/09/15 11:34:14;;;;;;;8.75;1.63;;;;;;;15.00;79.97;100101.56;5017992;28;20245;-50
2022/09/15 11:36:46;;;;;;;5.68;1.42;;;;;;;15.68;78.95;100108.50;5017510;28;20195;-48
2022/09/15 11:39:16;;;;;;;6.32;1.20;;;;;;;16.20;76.80;100095.78;5017649;28;20200;-50